Time;durP1;ratioP1;P1;durP2;ratioP2;P2;SDS_P1;SDS_P2;PMS_P1;PMS_P2;Temp;Humidity;BMP_temperature;BMP_pressure;BME280_temperature;BME280_humidity;BME280_pressure;Samples;Min_cycle;Max_cycle;Signal;HPM_P1;HPM_P2
2023/04/26 00:02:17;;;;;;;;;;;;;;;5.85;60.31;100498.03;108664;1256;124472;-78
2023/04/26 00:05:04;;;;;;;;;;;;;;;5.79;60.30;100497.98;108933;1257;60116;-80
2023/04/26 00:07:52;;;;;;;;;;;;;;;5.72;60.56;100498.19;108253;1268;124859;-80
2023/04/26 00:10:19;;;;;;;;;;;;;;;5.64;60.62;100494.77;108336;1265;66336;-80
2023/04/26 00:12:46;;;;;;;;;;;;;;;5.57;60.60;100500.92;108343;1265;70974;-78
2023/04/26 00:15:13;;;;;;;;;;;;;;;5.51;60.71;100501.71;108074;1265;214719;-78
2023/04/26 00:17:41;;;;;;;;;;;;;;;5.44;60.89;100500.71;108354;1265;59156;-78
2023/04/26 00:20:12;;;;;;;;;;;;;;;5.36;60.99;100502.50;108275;1265;124223;-78
2023/04/26 00:22:39;;;;;;;;;;;;;;;5.29;61.12;100499.73;108312;1265;65916;-78
2023/04/26 00:25:06;;;;;;;;;;;;;;;5.24;61.33;100499.38;108298;1269;71408;-78
2023/04/26 00:27:33;;;;;;;;;;;;;;;5.19;61.44;100500.36;108273;1265;123903;-78
2023/04/26 00:30:00;;;;;;;;;;;;;;;5.14;61.59;100498.95;108208;1265;59360;-77
2023/04/26 00:32:27;;;;;;;;;;;;;;;5.10;61.68;100499.12;108107;1265;124109;-78
2023/04/26 00:34:54;;;;;;;;;;;;;;;5.07;61.73;100499.16;108327;1265;65952;-78
2023/04/26 00:37:22;;;;;;;;;;;;;;;5.02;61.83;100499.14;108140;1265;124007;-79
2023/04/26 00:39:49;;;;;;;;;;;;;;;4.99;61.99;100502.12;108100;1265;59378;-80
2023/04/26 00:42:16;;;;;;;;;;;;;;;4.96;61.99;100497.63;108268;1265;59498;-80
2023/04/26 00:44:42;;;;;;;;;;;;;;;4.92;62.15;100492.09;108402;1257;123940;-79
2023/04/26 00:47:09;;;;;;;;;;;;;;;4.90;62.22;100495.47;108793;1256;67556;-78
2023/04/26 00:49:36;;;;;;;;;;;;;;;4.86;62.26;100493.23;108616;1256;124684;-78
2023/04/26 00:52:05;;;;;;;;;;;;;;;4.82;62.37;100492.86;108696;1263;59433;-78
2023/04/26 00:54:32;;;;;;;;;;;;;;;4.78;62.52;100493.77;108767;1256;60671;-78
2023/04/26 00:56:59;;;;;;;;;;;;;;;4.75;62.53;100494.64;108642;1256;124014;-78
2023/04/26 00:59:26;;;;;;;;;;;;;;;4.70;62.67;100490.96;108952;1257;65567;-78
2023/04/26 01:01:54;;;;;;;;;;;;;;;4.67;62.71;100495.51;108855;1257;124467;-78
2023/04/26 01:04:25;;;;;;;;;;;;;;;4.63;62.88;100495.17;108769;1258;59359;-78
2023/04/26 01:06:52;;;;;;;;;;;;;;;4.63;63.01;100496.55;108818;1258;60590;-77
2023/04/26 01:09:18;;;;;;;;;;;;;;;4.65;63.11;100496.48;108670;1258;124050;-77
2023/04/26 01:11:46;;;;;;;;;;;;;;;4.70;63.33;100503.29;108795;1257;65640;-78
2023/04/26 01:14:13;;;;;;;;;;;;;;;4.76;63.36;100500.26;108590;1259;124547;-78
2023/04/26 01:16:40;;;;;;;;;;;;;;;4.83;63.48;100503.71;108644;1263;59059;-79
2023/04/26 01:19:08;;;;;;;;;;;;;;;4.92;63.56;100502.36;108715;1259;59530;-78
2023/04/26 01:21:35;;;;;;;;;;;;;;;5.02;63.64;100504.50;108484;1259;124913;-78
2023/04/26 01:24:02;;;;;;;;;;;;;;;5.10;63.58;100502.77;108772;1259;65725;-79
2023/04/26 01:26:30;;;;;;;;;;;;;;;5.17;63.48;100503.42;108693;1258;124304;-77
2023/04/26 01:28:57;;;;;;;;;;;;;;;5.24;63.44;100499.90;108668;1257;59449;-79
2023/04/26 01:31:24;;;;;;;;;;;;;;;5.32;63.45;100499.34;108605;1258;124023;-77
2023/04/26 01:33:51;;;;;;;;;;;;;;;5.37;63.38;100500.62;108625;1257;74700;-80
2023/04/26 01:36:18;;;;;;;;;;;;;;;5.43;63.50;100496.33;108784;1260;67554;-78
2023/04/26 01:38:45;;;;;;;;;;;;;;;5.49;63.36;100500.04;108778;1258;124661;-79
2023/04/26 01:41:12;;;;;;;;;;;;;;;5.55;63.38;100496.13;108152;1261;61294;-78
2023/04/26 01:43:39;;;;;;;;;;;;;;;5.61;63.31;100496.20;108642;1258;124542;-78
2023/04/26 01:46:06;;;;;;;;;;;;;;;5.67;63.28;100493.82;108749;1262;74925;-78
2023/04/26 01:48:34;;;;;;;;;;;;;;;5.72;63.25;100495.98;108711;1263;67477;-78
2023/04/26 01:51:00;;;;;;;;;;;;;;;5.77;63.22;100494.58;108716;1258;124093;-78
2023/04/26 01:53:27;;;;;;;;;;;;;;;5.81;63.34;100490.57;108849;1262;59477;-79
2023/04/26 01:55:54;;;;;;;;;;;;;;;5.85;63.16;100491.59;108697;1263;124943;-79
2023/04/26 01:58:21;;;;;;;;;;;;;;;5.89;63.20;100489.30;108497;1257;74863;-79
2023/04/26 02:00:48;;;;;;;;;;;;;;;5.93;63.14;100489.80;107327;1263;66968;-79
2023/04/26 02:03:17;;;;;;;;;;;;;;;5.98;63.16;100491.44;107394;1262;124363;-79
2023/04/26 02:05:43;;;;;;;;;;;;;;;6.01;63.16;100491.23;107748;1260;60198;-79
2023/04/26 02:08:11;;;;;;;;;;;;;;;6.05;63.08;100488.22;107701;1258;124575;-78
2023/04/26 02:10:38;;;;;;;;;;;;;;;6.09;63.05;100486.29;107441;1257;74753;-78
2023/04/26 02:13:07;;;;;;;;;;;;;;;6.11;63.11;100489.19;107586;1257;65708;-80
2023/04/26 02:15:34;;;;;;;;;;;;;;;6.14;63.16;100490.33;107685;1262;124183;-80
2023/04/26 02:18:01;;;;;;;;;;;;;;;6.16;63.02;100484.48;108092;1262;59979;-80
2023/04/26 02:20:28;;;;;;;;;;;;;;;6.18;63.01;100479.48;107601;1258;125029;-80
2023/04/26 02:22:55;;;;;;;;;;;;;;;6.19;63.06;100482.15;107432;1257;73057;-80
2023/04/26 02:25:22;;;;;;;;;;;;;;;6.20;63.11;100482.91;107577;1263;124267;-79
2023/04/26 02:27:50;;;;;;;;;;;;;;;6.23;63.00;100484.02;108705;1257;73247;-78
2023/04/26 02:30:17;;;;;;;;;;;;;;;6.25;63.02;100484.46;108899;1258;59345;-78
2023/04/26 02:32:44;;;;;;;;;;;;;;;6.25;62.98;100485.70;108640;1262;123917;-78
2023/04/26 02:35:11;;;;;;;;;;;;;;;6.26;62.94;100483.27;108791;1257;74730;-78
2023/04/26 02:37:38;;;;;;;;;;;;;;;6.26;63.01;100483.81;108691;1259;124557;-78
2023/04/26 02:40:09;;;;;;;;;;;;;;;6.28;63.02;100481.45;108738;1257;72509;-79
2023/04/26 02:42:36;;;;;;;;;;;;;;;6.30;63.02;100484.67;108843;1258;59414;-79
2023/04/26 02:45:03;;;;;;;;;;;;;;;6.30;63.03;100480.81;108747;1258;124319;-79
2023/04/26 02:47:30;;;;;;;;;;;;;;;6.30;62.94;100478.72;108810;1262;73343;-79
2023/04/26 02:49:57;;;;;;;;;;;;;;;6.29;62.92;100479.92;108749;1262;124084;-79
2023/04/26 02:52:24;;;;;;;;;;;;;;;6.30;62.97;100479.94;108940;1257;71446;-79
2023/04/26 02:54:51;;;;;;;;;;;;;;;6.31;62.99;100478.23;108762;1257;59074;-79
2023/04/26 02:57:18;;;;;;;;;;;;;;;6.33;63.07;100481.61;108752;1257;125551;-79
2023/04/26 02:59:45;;;;;;;;;;;;;;;6.33;62.98;100485.12;108867;1257;73626;-78
2023/04/26 03:02:12;;;;;;;;;;;;;;;6.36;63.04;100486.43;108854;1260;124192;-78
2023/04/26 03:04:40;;;;;;;;;;;;;;;6.37;63.09;100484.41;108440;1258;72484;-78
2023/04/26 03:07:07;;;;;;;;;;;;;;;6.39;63.01;100484.98;108830;1257;59444;-79
2023/04/26 03:09:37;;;;;;;;;;;;;;;6.39;62.98;100487.45;108795;1257;124049;-79
2023/04/26 03:12:07;;;;;;;;;;;;;;;6.41;63.01;100488.38;108898;1257;73340;-78
2023/04/26 03:14:34;;;;;;;;;;;;;;;6.42;62.90;100490.01;108768;1257;124096;-80
2023/04/26 03:17:01;;;;;;;;;;;;;;;6.42;62.82;100485.83;108966;1257;71099;-79
2023/04/26 03:19:28;;;;;;;;;;;;;;;6.43;62.79;100483.57;108879;1257;124091;-79
2023/04/26 03:21:55;;;;;;;;;;;;;;;6.43;62.85;100485.16;107355;1257;60592;-79
2023/04/26 03:24:22;;;;;;;;;;;;;;;6.45;62.82;100483.29;107384;1258;73365;-80
2023/04/26 03:26:49;;;;;;;;;;;;;;;6.45;62.79;100480.33;107153;1257;124711;-80
2023/04/26 03:29:16;;;;;;;;;;;;;;;6.47;62.78;100485.45;107306;1262;71384;-80
2023/04/26 03:31:43;;;;;;;;;;;;;;;6.47;62.75;100486.52;107313;1258;124542;-79
2023/04/26 03:34:10;;;;;;;;;;;;;;;6.48;62.76;100490.37;107492;1260;60016;-80
2023/04/26 03:36:37;;;;;;;;;;;;;;;6.48;62.74;100493.17;107266;1257;76629;-80
2023/04/26 03:39:05;;;;;;;;;;;;;;;6.47;62.81;100494.71;107104;1257;124373;-80
2023/04/26 03:41:34;;;;;;;;;;;;;;;6.46;62.75;100496.05;107193;1257;72964;-80
2023/04/26 03:44:01;;;;;;;;;;;;;;;6.47;62.83;100498.52;107220;1256;124411;-79
2023/04/26 03:46:28;;;;;;;;;;;;;;;6.48;62.82;100502.58;107538;1257;61557;-78
2023/04/26 03:48:55;;;;;;;;;;;;;;;6.47;62.88;100503.60;108874;1257;74909;-78
2023/04/26 03:51:22;;;;;;;;;;;;;;;6.47;62.85;100503.44;108833;1256;123845;-78
2023/04/26 03:53:49;;;;;;;;;;;;;;;6.48;62.94;100505.55;108908;1256;71727;-78
2023/04/26 03:56:17;;;;;;;;;;;;;;;6.47;62.84;100506.05;108836;1257;123839;-79
2023/04/26 03:58:43;;;;;;;;;;;;;;;6.48;62.88;100508.35;108877;1257;59492;-77
2023/04/26 04:01:10;;;;;;;;;;;;;;;6.50;62.90;100515.38;108954;1257;73078;-78
2023/04/26 04:03:37;;;;;;;;;;;;;;;6.52;62.88;100514.40;108757;1257;123910;-78
2023/04/26 04:06:04;;;;;;;;;;;;;;;6.56;62.93;100515.08;108901;1257;72722;-78
2023/04/26 04:08:32;;;;;;;;;;;;;;;6.57;62.86;100517.91;108743;1257;124283;-78
2023/04/26 04:11:00;;;;;;;;;;;;;;;6.59;62.86;100518.16;108908;1257;59068;-80
2023/04/26 04:13:27;;;;;;;;;;;;;;;6.61;62.76;100521.05;108029;1260;124055;-78
2023/04/26 04:15:54;;;;;;;;;;;;;;;6.63;62.64;100517.95;107255;1256;65749;-78
2023/04/26 04:18:21;;;;;;;;;;;;;;;6.66;62.67;100520.31;107280;1257;70127;-79
2023/04/26 04:20:48;;;;;;;;;;;;;;;6.67;62.75;100522.83;108669;1263;124784;-81
2023/04/26 04:23:15;;;;;;;;;;;;;;;6.69;62.61;100523.94;108809;1257;59336;-78
2023/04/26 04:25:44;;;;;;;;;;;;;;;6.70;62.67;100521.20;108746;1258;124508;-79
2023/04/26 04:28:11;;;;;;;;;;;;;;;6.74;62.68;100523.61;108874;1256;67700;-78
2023/04/26 04:30:38;;;;;;;;;;;;;;;6.76;62.58;100525.27;107784;1260;72659;-80
2023/04/26 04:33:05;;;;;;;;;;;;;;;6.80;62.67;100527.11;107046;1263;124765;-80
2023/04/26 04:35:32;;;;;;;;;;;;;;;6.82;62.71;100527.02;107155;1259;60554;-77
2023/04/26 04:38:00;;;;;;;;;;;;;;;6.83;62.53;100526.35;107256;1257;124848;-77
2023/04/26 04:40:27;;;;;;;;;;;;;;;6.81;62.53;100527.01;107364;1257;66002;-77
2023/04/26 04:42:54;;;;;;;;;;;;;;;6.84;62.55;100526.59;107514;1257;72767;-78
2023/04/26 04:45:22;;;;;;;;;;;;;;;6.88;62.48;100530.58;107388;1257;124287;-78
2023/04/26 04:47:55;;;;;;;;;;;;;;;6.91;62.26;100529.77;107494;1257;61241;-78
2023/04/26 04:50:22;;;;;;;;;;;;;;;6.95;62.35;100533.11;107449;1256;123892;-79
2023/04/26 04:52:49;;;;;;;;;;;;;;;7.00;62.27;100531.52;107425;1256;67042;-82
2023/04/26 04:55:16;;;;;;;;;;;;;;;7.05;62.30;100531.86;107297;1257;72404;-79
2023/04/26 04:57:43;;;;;;;;;;;;;;;7.10;62.25;100528.39;107286;1258;124698;-79
2023/04/26 05:00:14;;;;;;;;;;;;;;;7.17;62.30;100525.84;108807;1257;59830;-79
2023/04/26 05:02:41;;;;;;;;;;;;;;;7.26;62.14;100533.80;108761;1257;123912;-80
2023/04/26 05:05:09;;;;;;;;;;;;;;;7.35;62.17;100532.21;107506;1257;67119;-83
2023/04/26 05:07:36;;;;;;;;;;;;;;;7.47;62.09;100537.14;107166;1258;124490;-80
2023/04/26 05:10:04;;;;;;;;;;;;;;;7.60;62.01;100539.69;107449;1257;59664;-80
2023/04/26 05:12:30;;;;;;;;;;;;;;;7.72;61.81;100541.83;107406;1258;60465;-81
2023/04/26 05:14:57;;;;;;;;;;;;;;;7.80;61.75;100550.14;106976;1257;124803;-80
2023/04/26 05:17:25;;;;;;;;;;;;;;;7.86;61.60;100545.61;107291;1260;66474;-80
2023/04/26 05:19:58;;;;;;;;;;;;;;;7.92;61.59;100548.77;107495;1260;124260;-82
2023/04/26 05:22:26;;;;;;;;;;;;;;;7.96;61.54;100554.00;107362;1258;61856;-80
2023/04/26 05:24:53;;;;;;;;;;;;;;;7.97;61.25;100553.86;107451;1257;61279;-81
2023/04/26 05:27:20;;;;;;;;;;;;;;;7.95;61.12;100552.37;107264;1256;124576;-79
2023/04/26 05:29:47;;;;;;;;;;;;;;;7.92;60.89;100550.35;107509;1256;65347;-81
2023/04/26 05:32:14;;;;;;;;;;;;;;;7.91;61.06;100550.65;107699;1257;124229;-79
2023/04/26 05:34:41;;;;;;;;;;;;;;;7.92;61.07;100544.42;107819;1256;60265;-81
2023/04/26 05:37:08;;;;;;;;;;;;;;;7.97;60.91;100541.60;107649;1258;60524;-79
2023/04/26 05:39:35;;;;;;;;;;;;;;;8.03;60.98;100548.08;107569;1257;124730;-80
2023/04/26 05:42:07;;;;;;;;;;;;;;;8.10;61.10;100553.02;107706;1257;67067;-80
2023/04/26 05:44:40;;;;;;;;;;;;;;;8.21;60.93;100549.86;108585;1256;124413;-79
2023/04/26 05:47:07;;;;;;;;;;;;;;;8.25;60.81;100548.10;108885;1256;59272;-80
2023/04/26 05:49:34;;;;;;;;;;;;;;;8.30;60.65;100542.83;108718;1259;124122;-80
2023/04/26 05:52:02;;;;;;;;;;;;;;;8.37;60.49;100546.17;108829;1257;74730;-79
2023/04/26 05:54:29;;;;;;;;;;;;;;;8.44;60.39;100550.77;108818;1256;66796;-80
2023/04/26 05:56:56;;;;;;;;;;;;;;;8.56;60.38;100551.84;108713;1256;124331;-80
2023/04/26 05:59:23;;;;;;;;;;;;;;;8.81;60.53;100555.39;108916;1256;59273;-80
2023/04/26 06:01:50;;;;;;;;;;;;;;;9.12;60.37;100555.54;108791;1257;125387;-80
2023/04/26 06:04:18;;;;;;;;;;;;;;;9.42;60.08;100550.23;108889;1256;73422;-81
2023/04/26 06:06:45;;;;;;;;;;;;;;;9.70;59.85;100552.17;108924;1256;65776;-80
2023/04/26 06:09:12;;;;;;;;;;;;;;;9.93;59.44;100545.55;108849;1256;124884;-80
2023/04/26 06:11:39;;;;;;;;;;;;;;;10.11;59.07;100553.53;108290;1256;59281;-80
2023/04/26 06:14:06;;;;;;;;;;;;;;;10.23;58.59;100549.08;107076;1257;125063;-80
2023/04/26 06:16:33;;;;;;;;;;;;;;;10.30;58.41;100547.33;107201;1256;74589;-78
2023/04/26 06:19:00;;;;;;;;;;;;;;;10.37;58.08;100557.31;107411;1257;65630;-79
2023/04/26 06:21:27;;;;;;;;;;;;;;;10.37;57.67;100555.73;107403;1256;124348;-79
2023/04/26 06:23:54;;;;;;;;;;;;;;;10.29;57.40;100554.50;107520;1257;61300;-79
2023/04/26 06:26:21;;;;;;;;;;;;;;;10.22;57.19;100555.73;107380;1259;124244;-79
2023/04/26 06:28:48;;;;;;;;;;;;;;;10.18;57.08;100555.09;107433;1256;74641;-78
2023/04/26 06:31:15;;;;;;;;;;;;;;;10.19;57.06;100552.49;107459;1256;65783;-79
2023/04/26 06:33:42;;;;;;;;;;;;;;;10.22;56.93;100554.14;107421;1256;124222;-79
2023/04/26 06:36:12;;;;;;;;;;;;;;;10.23;56.81;100558.54;107648;1256;61791;-79
2023/04/26 06:38:39;;;;;;;;;;;;;;;10.32;56.80;100556.83;107781;1256;125404;-79
2023/04/26 06:41:07;;;;;;;;;;;;;;;10.44;56.60;100557.30;107697;1256;74442;-79
2023/04/26 06:43:34;;;;;;;;;;;;;;;10.65;56.72;100552.14;107389;1257;125052;-79
2023/04/26 06:46:01;;;;;;;;;;;;;;;10.88;56.55;100552.81;107600;1256;71040;-79
2023/04/26 06:48:28;;;;;;;;;;;;;;;11.01;55.98;100548.67;107791;1256;60775;-79
2023/04/26 06:50:55;;;;;;;;;;;;;;;11.10;55.89;100553.05;107756;1256;124948;-79
2023/04/26 06:53:22;;;;;;;;;;;;;;;11.28;55.83;100554.10;107612;1256;73500;-79
2023/04/26 06:55:49;;;;;;;;;;;;;;;11.40;55.44;100555.73;107552;1256;124557;-79
2023/04/26 06:58:16;;;;;;;;;;;;;;;11.38;54.95;100552.36;107478;1256;73225;-79
2023/04/26 07:00:43;;;;;;;;;;;;;;;11.45;54.86;100555.13;107438;1256;59876;-79
2023/04/26 07:03:10;;;;;;;;;;;;;;;11.54;54.74;100556.87;107619;1256;125134;-81
2023/04/26 07:05:40;;;;;;;;;;;;;;;11.66;54.60;100560.77;107677;1256;74715;-82
2023/04/26 07:08:07;;;;;;;;;;;;;;;11.83;54.35;100555.97;107330;1256;125417;-81
2023/04/26 07:10:34;;;;;;;;;;;;;;;11.93;53.92;100558.62;107437;1256;70314;-79
2023/04/26 07:13:01;;;;;;;;;;;;;;;11.98;53.63;100561.16;107407;1258;61219;-79
2023/04/26 07:15:28;;;;;;;;;;;;;;;12.02;53.41;100565.63;107368;1256;124235;-81
2023/04/26 07:17:55;;;;;;;;;;;;;;;12.03;53.31;100567.42;108782;1256;73955;-80
2023/04/26 07:20:23;;;;;;;;;;;;;;;11.99;53.06;100566.81;108755;1257;125647;-80
2023/04/26 07:22:50;;;;;;;;;;;;;;;12.10;53.11;100568.40;108948;1256;71372;-81
2023/04/26 07:25:18;;;;;;;;;;;;;;;12.29;52.94;100570.80;108884;1256;59439;-80
2023/04/26 07:27:45;;;;;;;;;;;;;;;12.44;52.72;100572.77;108791;1257;124325;-80
2023/04/26 07:30:13;;;;;;;;;;;;;;;12.57;52.72;100570.52;108853;1256;75683;-80
2023/04/26 07:32:40;;;;;;;;;;;;;;;12.64;52.31;100566.55;107420;1257;124781;-79
2023/04/26 07:35:14;;;;;;;;;;;;;;;12.61;52.17;100567.22;107436;1256;72715;-81
2023/04/26 07:37:42;;;;;;;;;;;;;;;12.57;52.12;100570.86;107460;1257;124411;-80
2023/04/26 07:40:10;;;;;;;;;;;;;;;12.64;51.95;100564.44;107695;1257;59848;-79
2023/04/26 07:42:38;;;;;;;;;;;;;;;12.73;51.67;100570.54;107647;1259;74428;-79
2023/04/26 07:45:05;;;;;;;;;;;;;;;12.65;51.33;100578.55;107788;1260;124326;-79
2023/04/26 07:47:32;;;;;;;;;;;;;;;12.57;50.79;100575.08;107521;1257;73947;-79
2023/04/26 07:50:00;;;;;;;;;;;;;;;12.52;50.94;100578.00;107223;1257;125156;-79
2023/04/26 07:52:27;;;;;;;;;;;;;;;12.52;50.97;100585.94;107560;1257;60131;-79
2023/04/26 07:54:54;;;;;;;;;;;;;;;12.53;50.79;100582.59;107781;1256;74650;-79
2023/04/26 07:57:21;;;;;;;;;;;;;;;12.52;50.77;100581.16;107416;1256;124324;-79
2023/04/26 07:59:48;;;;;;;;;;;;;;;12.48;50.60;100584.10;107439;1256;72666;-79
2023/04/26 08:02:15;;;;;;;;;;;;;;;12.45;50.73;100584.94;107481;1256;124325;-79
2023/04/26 08:04:47;;;;;;;;;;;;;;;12.42;50.78;100585.06;107820;1256;61281;-79
2023/04/26 08:07:14;;;;;;;;;;;;;;;12.39;50.62;100582.92;107780;1256;73582;-79
2023/04/26 08:09:41;;;;;;;;;;;;;;;12.27;50.29;100582.90;107537;1256;124705;-81
2023/04/26 08:12:15;;;;;;;;;;;;;;;12.10;50.44;100582.66;107848;1256;71323;-81
2023/04/26 08:14:42;;;;;;;;;;;;;;;12.04;50.47;100585.90;107278;1257;124237;-79
2023/04/26 08:17:22;;;;;;;;;;;;;;;;;;;;;
2023/04/26 08:20:04;;;;;;;;;;;;;;;11.73;50.59;100587.80;107431;1256;124417;-80
2023/04/26 08:22:31;;;;;;;;;;;;;;;11.57;50.62;100589.44;107641;1256;67112;-79
2023/04/26 08:24:59;;;;;;;;;;;;;;;11.38;50.77;100593.13;107961;1256;72406;-79
2023/04/26 08:27:27;;;;;;;;;;;;;;;11.24;50.91;100593.04;107842;1256;124964;-80
2023/04/26 08:29:54;;;;;;;;;;;;;;;11.24;50.98;100591.27;107600;1256;61369;-79
2023/04/26 08:32:21;;;;;;;;;;;;;;;11.14;50.87;100595.11;107572;1257;124416;-79
2023/04/26 08:34:48;;;;;;;;;;;;;;;11.05;51.22;100594.25;107992;1257;66873;-79
2023/04/26 08:37:15;;;;;;;;;;;;;;;10.98;51.38;100600.94;107822;1257;72679;-79
2023/04/26 08:39:42;;;;;;;;;;;;;;;10.91;51.55;100605.70;107613;1262;124490;-79
2023/04/26 08:42:13;;;;;;;;;;;;;;;10.90;51.41;100604.98;107639;1257;59584;-80
2023/04/26 08:44:43;;;;;;;;;;;;;;;10.95;51.65;100602.98;107640;1257;124671;-80
2023/04/26 08:47:19;;;;;;;;;;;;;;;11.13;51.63;100599.84;107568;1256;67105;-80
2023/04/26 08:49:49;;;;;;;;;;;;;;;11.28;51.39;100604.71;107416;1258;124403;-80
2023/04/26 08:52:21;;;;;;;;;;;;;;;11.41;51.37;100606.36;107583;1256;61034;-80
2023/04/26 08:54:50;;;;;;;;;;;;;;;11.43;50.98;100609.56;107933;1256;61316;-80
2023/04/26 08:57:17;;;;;;;;;;;;;;;11.41;51.03;100609.71;107704;1257;124662;-79
2023/04/26 08:59:45;;;;;;;;;;;;;;;11.51;51.12;100607.24;107516;1256;67057;-80
2023/04/26 09:02:15;;;;;;;;;;;;;;;11.57;51.05;100608.40;107372;1256;124450;-80
2023/04/26 09:04:42;;;;;;;;;;;;;;;11.56;50.87;100610.52;107454;1256;60523;-80
2023/04/26 09:07:11;;;;;;;;;;;;;;;11.48;50.84;100614.92;107443;1257;60102;-80
2023/04/26 09:09:40;;;;;;;;;;;;;;;11.39;50.95;100621.45;107408;1256;125612;-80
2023/04/26 09:12:07;;;;;;;;;;;;;;;11.35;51.02;100619.24;107548;1256;65808;-79
2023/04/26 09:14:35;;;;;;;;;;;;;;;11.32;50.98;100620.77;107549;1256;124890;-79
2023/04/26 09:17:02;;;;;;;;;;;;;;;11.26;51.09;100623.46;107661;1256;59863;-79
2023/04/26 09:19:36;;;;;;;;;;;;;;;11.27;51.34;100628.21;107845;1260;124739;-79
2023/04/26 09:22:14;;;;;;;;;;;;;;;11.43;51.53;100629.41;108055;1256;74426;-79
2023/04/26 09:24:49;;;;;;;;;;;;;;;11.74;51.45;100622.61;108148;1257;66810;-80
2023/04/26 09:27:16;;;;;;;;;;;;;;;11.93;51.22;100630.54;107943;1257;124846;-80
2023/04/26 09:30:00;;;;;;;;;;;;;;;11.90;50.89;100634.70;108301;1256;59509;-79
2023/04/26 09:32:30;;;;;;;;;;;;;;;11.77;50.95;100637.09;108157;1256;124477;-79
2023/04/26 09:34:58;;;;;;;;;;;;;;;11.74;50.92;100633.86;108130;1256;74502;-79
2023/04/26 09:37:26;;;;;;;;;;;;;;;11.74;50.75;100633.52;108069;1256;125046;-79
2023/04/26 09:39:52;;;;;;;;;;;;;;;11.91;50.84;100635.77;107942;1257;73207;-79
2023/04/26 09:42:20;;;;;;;;;;;;;;;12.21;51.14;100635.24;107619;1256;61396;-79
2023/04/26 09:44:47;;;;;;;;;;;;;;;12.47;51.07;100636.36;107514;1256;124514;-79
2023/04/26 09:47:14;;;;;;;;;;;;;;;12.43;50.59;100641.41;107681;1257;73275;-79
2023/04/26 09:49:50;;;;;;;;;;;;;;;12.24;50.73;100645.48;107515;1257;124657;-79
2023/04/26 09:52:17;;;;;;;;;;;;;;;12.05;50.79;100651.52;107804;1256;71403;-79
2023/04/26 09:54:45;;;;;;;;;;;;;;;11.91;51.06;100656.34;107741;1260;61121;-79
2023/04/26 09:57:13;;;;;;;;;;;;;;;11.90;51.14;100658.96;107551;1256;125295;-79
2023/04/26 09:59:42;;;;;;;;;;;;;;;11.95;51.41;100656.78;107529;1256;74692;-79
2023/04/26 10:02:18;;;;;;;;;;;;;;;11.99;51.24;100664.95;107656;1256;124983;-79
2023/04/26 10:04:46;;;;;;;;;;;;;;;12.02;50.95;100665.52;107595;1256;70599;-79
2023/04/26 10:07:16;;;;;;;;;;;;;;;12.06;51.07;100668.06;107553;1257;61404;-79
2023/04/26 10:09:43;;;;;;;;;;;;;;;12.06;51.17;100667.89;107473;1260;124791;-80
2023/04/26 10:12:10;;;;;;;;;;;;;;;12.15;51.26;100670.67;108876;1257;73005;-80
2023/04/26 10:14:37;;;;;;;;;;;;;;;12.29;51.28;100675.13;108818;1256;124907;-79
2023/04/26 10:17:05;;;;;;;;;;;;;;;12.40;51.20;100674.44;108217;1256;72707;-80
2023/04/26 10:19:34;;;;;;;;;;;;;;;12.49;51.00;100679.51;107301;1256;124726;-79
2023/04/26 10:22:06;;;;;;;;;;;;;;;12.59;50.79;100680.20;107338;1257;59260;-79
2023/04/26 10:24:34;;;;;;;;;;;;;;;12.64;50.71;100684.68;107262;1259;73410;-79
2023/04/26 10:27:03;;;;;;;;;;;;;;;12.72;50.46;100683.20;107309;1256;124556;-79
2023/04/26 10:29:49;;;;;;;;;;;;;;;12.70;50.20;100682.64;107307;1256;71362;-81
2023/04/26 10:32:17;;;;;;;;;;;;;;;12.66;50.05;100688.05;106934;1256;124429;-79
2023/04/26 10:34:44;;;;;;;;;;;;;;;12.67;50.01;100689.30;107083;1256;61453;-79
2023/04/26 10:37:14;;;;;;;;;;;;;;;12.81;49.98;100690.74;107418;1256;73380;-79
2023/04/26 10:39:42;;;;;;;;;;;;;;;13.04;49.93;100690.02;107293;1260;125186;-79
2023/04/26 10:42:35;;;;;;;;;;;;;;;13.14;49.55;100687.17;107624;1262;72666;-79
2023/04/26 10:45:22;;;;;;;;;;;;;;;13.21;49.28;100690.95;107634;1256;124396;-79
2023/04/26 10:47:49;;;;;;;;;;;;;;;13.16;48.92;100691.95;107640;1257;60384;-80
2023/04/26 10:50:16;;;;;;;;;;;;;;;13.09;48.91;100686.91;107690;1256;125274;-79
2023/04/26 10:53:04;;;;;;;;;;;;;;;13.13;49.00;100687.14;107436;1256;66850;-79
2023/04/26 10:55:38;;;;;;;;;;;;;;;13.17;48.46;100692.66;107454;1257;124561;-79
2023/04/26 10:58:24;;;;;;;;;;;;;;;13.05;48.33;100687.74;107530;1257;59617;-80
2023/04/26 11:01:10;;;;;;;;;;;;;;;13.17;48.88;100689.48;108848;1256;59816;-80
2023/04/26 11:03:37;;;;;;;;;;;;;;;13.41;48.61;100690.36;108771;1256;124478;-80
2023/04/26 11:06:08;;;;;;;;;;;;;;;13.60;48.43;100687.41;108899;1256;67969;-79
2023/04/26 11:08:35;;;;;;;;;;;;;;;13.72;48.20;100692.84;107786;1263;125001;-79
2023/04/26 11:11:02;;;;;;;;;;;;;;;13.77;47.75;100695.89;107460;1256;61229;-79
2023/04/26 11:13:30;;;;;;;;;;;;;;;13.81;47.66;100698.58;107342;1256;124913;-79
2023/04/26 11:16:03;;;;;;;;;;;;;;;13.91;47.70;100699.21;107418;1257;74644;-80
2023/04/26 11:18:30;;;;;;;;;;;;;;;13.98;47.27;100700.35;107352;1256;67085;-79
2023/04/26 11:20:58;;;;;;;;;;;;;;;13.97;47.16;100701.39;107247;1256;125358;-79
2023/04/26 11:23:26;;;;;;;;;;;;;;;13.92;46.63;100705.58;107237;1257;59866;-81
2023/04/26 11:25:57;;;;;;;;;;;;;;;13.82;46.21;100704.41;107375;1256;125441;-81
2023/04/26 11:28:24;;;;;;;;;;;;;;;13.90;46.45;100701.48;107484;1256;73837;-81
2023/04/26 11:30:51;;;;;;;;;;;;;;;14.04;46.06;100708.34;107285;1257;67063;-81
2023/04/26 11:33:21;;;;;;;;;;;;;;;14.12;45.78;100708.78;107324;1256;124906;-81
2023/04/26 11:35:48;;;;;;;;;;;;;;;14.28;45.73;100712.81;107466;1257;59606;-81
2023/04/26 11:38:15;;;;;;;;;;;;;;;14.30;45.21;100711.41;107436;1257;124537;-81
2023/04/26 11:40:42;;;;;;;;;;;;;;;14.29;45.28;100714.05;107553;1257;74726;-79
2023/04/26 11:43:10;;;;;;;;;;;;;;;14.36;45.00;100718.53;107233;1257;65785;-80
2023/04/26 11:45:39;;;;;;;;;;;;;;;14.19;44.96;100722.43;107365;1260;124339;-80
2023/04/26 11:48:07;;;;;;;;;;;;;;;14.01;44.68;100722.42;107518;1256;61251;-80
2023/04/26 11:50:35;;;;;;;;;;;;;;;13.89;44.42;100724.59;107467;1256;124790;-80
2023/04/26 11:53:03;;;;;;;;;;;;;;;13.75;44.02;100727.27;107467;1257;74305;-80
2023/04/26 11:55:32;;;;;;;;;;;;;;;13.63;44.15;100727.98;107441;1256;125246;-80
2023/04/26 11:57:59;;;;;;;;;;;;;;;13.60;43.71;100729.02;107521;1256;72725;-80
2023/04/26 12:00:26;;;;;;;;;;;;;;;13.53;43.23;100726.46;107482;1256;61269;-80
2023/04/26 12:02:54;;;;;;;;;;;;;;;13.27;43.19;100729.13;107245;1256;125220;-80
2023/04/26 12:05:22;;;;;;;;;;;;;;;13.15;43.48;100730.69;107504;1262;73590;-80
2023/04/26 12:07:52;;;;;;;;;;;;;;;13.06;43.31;100732.31;107574;1258;67610;-80
2023/04/26 12:10:20;;;;;;;;;;;;;;;12.79;43.13;100734.90;108714;1256;72909;-80
2023/04/26 12:12:48;;;;;;;;;;;;;;;12.51;42.94;100733.74;108865;1256;59089;-80
2023/04/26 12:15:15;;;;;;;;;;;;;;;12.16;43.16;100739.64;108643;1256;252047;-80
2023/04/26 12:17:52;;;;;;;;;;;;;;;11.89;43.46;100750.19;108941;1257;74730;-80
2023/04/26 12:20:31;;;;;;;;;;;;;;;11.65;43.39;100750.41;108858;1256;125121;-80
2023/04/26 12:22:58;;;;;;;;;;;;;;;11.55;43.34;100754.08;108877;1262;72726;-80
2023/04/26 12:25:26;;;;;;;;;;;;;;;11.54;43.15;100750.69;108948;1256;59058;-80
2023/04/26 12:27:53;;;;;;;;;;;;;;;11.51;43.19;100755.73;107586;1256;125068;-80
2023/04/26 12:30:20;;;;;;;;;;;;;;;11.43;42.73;100756.98;107251;1256;74543;-80
2023/04/26 12:32:47;;;;;;;;;;;;;;;11.29;42.14;100761.44;107232;1257;125085;-80
2023/04/26 12:35:14;;;;;;;;;;;;;;;11.23;42.18;100766.55;107679;1257;71481;-80